sensor_id;sensor_type;location;lat;lon;timestamp;temperature;humidity
41944;DHT22;27636;52.610;13.244;2023-06-26T00:01:20;17.50;99.90
41944;DHT22;27636;52.610;13.244;2023-06-26T00:06:24;17.40;99.90
41944;DHT22;27636;52.610;13.244;2023-06-26T00:11:29;17.40;99.90
41944;DHT22;27636;52.610;13.244;2023-06-26T00:16:37;17.40;99.90
41944;DHT22;27636;52.610;13.244;2023-06-26T00:21:41;17.30;99.90
41944;DHT22;27636;52.610;13.244;2023-06-26T00:26:49;17.30;99.90
41944;DHT22;27636;52.610;13.244;2023-06-26T00:31:54;17.40;99.90
41944;DHT22;27636;52.610;13.244;2023-06-26T00:36:58;17.30;99.90
41944;DHT22;27636;52.610;13.244;2023-06-26T00:42:03;17.40;99.90
41944;DHT22;27636;52.610;13.244;2023-06-26T00:47:11;17.50;99.90
41944;DHT22;27636;52.610;13.244;2023-06-26T00:52:19;17.50;99.90
41944;DHT22;27636;52.610;13.244;2023-06-26T00:57:28;17.60;99.90
41944;DHT22;27636;52.610;13.244;2023-06-26T01:02:34;17.80;99.90
41944;DHT22;27636;52.610;13.244;2023-06-26T01:07:38;17.80;99.90
41944;DHT22;27636;52.610;13.244;2023-06-26T01:12:42;17.90;99.90
41944;DHT22;27636;52.610;13.244;2023-06-26T01:17:48;18.00;99.90
41944;DHT22;27636;52.610;13.244;2023-06-26T01:23:00;18.00;99.90
41944;DHT22;27636;52.610;13.244;2023-06-26T01:28:08;18.10;99.90
41944;DHT22;27636;52.610;13.244;2023-06-26T01:33:13;18.20;99.90
41944;DHT22;27636;52.610;13.244;2023-06-26T01:38:19;18.10;99.90
41944;DHT22;27636;52.610;13.244;2023-06-26T01:43:29;18.10;99.90
41944;DHT22;27636;52.610;13.244;2023-06-26T01:48:44;18.00;99.90
41944;DHT22;27636;52.610;13.244;2023-06-26T01:53:53;18.10;99.90
41944;DHT22;27636;52.610;13.244;2023-06-26T01:59:00;18.30;99.90
41944;DHT22;27636;52.610;13.244;2023-06-26T02:04:05;18.20;99.90
41944;DHT22;27636;52.610;13.244;2023-06-26T02:09:09;18.20;99.90
41944;DHT22;27636;52.610;13.244;2023-06-26T02:14:14;18.10;99.90
41944;DHT22;27636;52.610;13.244;2023-06-26T02:19:18;18.00;99.90
41944;DHT22;27636;52.610;13.244;2023-06-26T02:24:25;18.00;99.90
41944;DHT22;27636;52.610;13.244;2023-06-26T02:29:35;18.00;99.90
41944;DHT22;27636;52.610;13.244;2023-06-26T02:34:39;17.80;99.90
41944;DHT22;27636;52.610;13.244;2023-06-26T02:39:43;17.80;99.90
41944;DHT22;27636;52.610;13.244;2023-06-26T02:44:49;17.60;99.90
41944;DHT22;27636;52.610;13.244;2023-06-26T02:49:52;17.60;99.90
41944;DHT22;27636;52.610;13.244;2023-06-26T02:54:56;17.60;99.90
41944;DHT22;27636;52.610;13.244;2023-06-26T03:00:01;17.50;99.90
41944;DHT22;27636;52.610;13.244;2023-06-26T03:05:06;17.40;99.90
41944;DHT22;27636;52.610;13.244;2023-06-26T03:10:11;17.40;99.90
41944;DHT22;27636;52.610;13.244;2023-06-26T03:15:19;17.30;99.90
41944;DHT22;27636;52.610;13.244;2023-06-26T03:20:24;17.40;99.90
41944;DHT22;27636;52.610;13.244;2023-06-26T03:25:30;17.40;99.90
41944;DHT22;27636;52.610;13.244;2023-06-26T03:30:48;17.40;99.90
41944;DHT22;27636;52.610;13.244;2023-06-26T03:35:52;17.50;99.90
41944;DHT22;27636;52.610;13.244;2023-06-26T03:40:56;17.60;99.90
41944;DHT22;27636;52.610;13.244;2023-06-26T03:46:01;17.70;99.90
41944;DHT22;27636;52.610;13.244;2023-06-26T03:51:05;17.80;99.90
41944;DHT22;27636;52.610;13.244;2023-06-26T03:56:10;18.00;99.90
41944;DHT22;27636;52.610;13.244;2023-06-26T04:01:15;18.20;99.90
41944;DHT22;27636;52.610;13.244;2023-06-26T04:06:20;18.40;99.90
41944;DHT22;27636;52.610;13.244;2023-06-26T04:11:24;18.60;99.90
41944;DHT22;27636;52.610;13.244;2023-06-26T04:16:29;18.80;99.90
41944;DHT22;27636;52.610;13.244;2023-06-26T04:21:33;19.00;99.90
41944;DHT22;27636;52.610;13.244;2023-06-26T04:26:37;19.10;99.90
41944;DHT22;27636;52.610;13.244;2023-06-26T04:31:46;19.40;99.90
41944;DHT22;27636;52.610;13.244;2023-06-26T04:36:50;19.60;99.90
41944;DHT22;27636;52.610;13.244;2023-06-26T04:41:54;20.30;99.90
41944;DHT22;27636;52.610;13.244;2023-06-26T04:47:00;20.90;99.90
41944;DHT22;27636;52.610;13.244;2023-06-26T04:52:04;21.30;99.90
41944;DHT22;27636;52.610;13.244;2023-06-26T04:57:07;22.20;99.90
41944;DHT22;27636;52.610;13.244;2023-06-26T05:02:14;24.30;99.90
41944;DHT22;27636;52.610;13.244;2023-06-26T05:07:18;26.30;99.90
41944;DHT22;27636;52.610;13.244;2023-06-26T05:12:22;27.60;99.90
41944;DHT22;27636;52.610;13.244;2023-06-26T05:17:27;28.30;95.80
41944;DHT22;27636;52.610;13.244;2023-06-26T05:22:31;27.60;96.10
41944;DHT22;27636;52.610;13.244;2023-06-26T05:27:35;26.60;99.90
41944;DHT22;27636;52.610;13.244;2023-06-26T05:32:43;25.30;99.90
41944;DHT22;27636;52.610;13.244;2023-06-26T05:37:52;24.20;99.90
41944;DHT22;27636;52.610;13.244;2023-06-26T05:42:56;25.00;99.90
41944;DHT22;27636;52.610;13.244;2023-06-26T05:48:02;27.40;99.20
41944;DHT22;27636;52.610;13.244;2023-06-26T05:53:09;30.00;89.20
41944;DHT22;27636;52.610;13.244;2023-06-26T05:58:14;30.20;84.70
41944;DHT22;27636;52.610;13.244;2023-06-26T06:03:23;30.90;81.20
41944;DHT22;27636;52.610;13.244;2023-06-26T06:08:27;31.50;75.00
41944;DHT22;27636;52.610;13.244;2023-06-26T06:13:33;32.40;70.10
41944;DHT22;27636;52.610;13.244;2023-06-26T06:18:38;31.90;68.70
41944;DHT22;27636;52.610;13.244;2023-06-26T06:23:51;32.80;70.30
41944;DHT22;27636;52.610;13.244;2023-06-26T06:28:54;34.30;67.90
41944;DHT22;27636;52.610;13.244;2023-06-26T06:33:59;34.60;62.20
41944;DHT22;27636;52.610;13.244;2023-06-26T06:39:02;34.70;62.30
41944;DHT22;27636;52.610;13.244;2023-06-26T06:44:06;33.90;61.70
41944;DHT22;27636;52.610;13.244;2023-06-26T06:49:11;34.20;62.20
41944;DHT22;27636;52.610;13.244;2023-06-26T06:54:15;34.60;57.10
41944;DHT22;27636;52.610;13.244;2023-06-26T06:59:20;34.80;59.00
41944;DHT22;27636;52.610;13.244;2023-06-26T07:04:26;35.30;55.30
41944;DHT22;27636;52.610;13.244;2023-06-26T07:09:30;34.40;59.90
41944;DHT22;27636;52.610;13.244;2023-06-26T07:14:44;35.00;55.90
41944;DHT22;27636;52.610;13.244;2023-06-26T07:19:50;34.50;56.00
41944;DHT22;27636;52.610;13.244;2023-06-26T07:24:53;35.10;57.60
41944;DHT22;27636;52.610;13.244;2023-06-26T07:29:57;35.30;56.90
41944;DHT22;27636;52.610;13.244;2023-06-26T07:35:05;35.80;56.00
41944;DHT22;27636;52.610;13.244;2023-06-26T07:40:09;35.50;54.80
41944;DHT22;27636;52.610;13.244;2023-06-26T07:45:15;36.70;55.40
41944;DHT22;27636;52.610;13.244;2023-06-26T07:50:20;36.10;53.70
41944;DHT22;27636;52.610;13.244;2023-06-26T07:55:30;36.00;52.70
41944;DHT22;27636;52.610;13.244;2023-06-26T08:00:34;36.20;54.50
41944;DHT22;27636;52.610;13.244;2023-06-26T08:05:40;35.50;55.00
41944;DHT22;27636;52.610;13.244;2023-06-26T08:10:44;36.70;52.70
41944;DHT22;27636;52.610;13.244;2023-06-26T08:15:47;37.70;51.30
41944;DHT22;27636;52.610;13.244;2023-06-26T08:20:57;36.80;52.90
41944;DHT22;27636;52.610;13.244;2023-06-26T08:26:00;37.10;50.80
41944;DHT22;27636;52.610;13.244;2023-06-26T08:31:04;38.10;49.50
41944;DHT22;27636;52.610;13.244;2023-06-26T08:36:09;36.70;50.30
41944;DHT22;27636;52.610;13.244;2023-06-26T08:41:12;36.50;47.60
41944;DHT22;27636;52.610;13.244;2023-06-26T08:46:19;36.90;49.80
41944;DHT22;27636;52.610;13.244;2023-06-26T08:51:25;37.70;47.00
41944;DHT22;27636;52.610;13.244;2023-06-26T08:56:42;36.90;48.50
41944;DHT22;27636;52.610;13.244;2023-06-26T09:01:46;36.40;48.00
41944;DHT22;27636;52.610;13.244;2023-06-26T09:06:54;36.00;48.40
41944;DHT22;27636;52.610;13.244;2023-06-26T09:11:57;35.00;51.50
41944;DHT22;27636;52.610;13.244;2023-06-26T09:17:01;35.70;49.80
41944;DHT22;27636;52.610;13.244;2023-06-26T09:22:11;35.60;47.60
41944;DHT22;27636;52.610;13.244;2023-06-26T09:27:15;36.20;47.90
41944;DHT22;27636;52.610;13.244;2023-06-26T09:32:19;36.70;47.20
41944;DHT22;27636;52.610;13.244;2023-06-26T09:37:24;37.60;47.90
41944;DHT22;27636;52.610;13.244;2023-06-26T09:42:29;37.40;47.30
41944;DHT22;27636;52.610;13.244;2023-06-26T09:47:34;37.00;47.20
41944;DHT22;27636;52.610;13.244;2023-06-26T09:52:40;37.30;45.30
41944;DHT22;27636;52.610;13.244;2023-06-26T09:57:46;37.00;46.60
41944;DHT22;27636;52.610;13.244;2023-06-26T10:02:53;36.80;47.40
41944;DHT22;27636;52.610;13.244;2023-06-26T10:07:58;37.10;46.90
41944;DHT22;27636;52.610;13.244;2023-06-26T10:13:07;36.60;47.50
41944;DHT22;27636;52.610;13.244;2023-06-26T10:18:13;36.80;47.50
41944;DHT22;27636;52.610;13.244;2023-06-26T10:23:20;36.40;45.80
41944;DHT22;27636;52.610;13.244;2023-06-26T10:28:26;37.70;46.80
41944;DHT22;27636;52.610;13.244;2023-06-26T10:33:31;37.70;47.20
41944;DHT22;27636;52.610;13.244;2023-06-26T10:38:52;36.90;46.30
41944;DHT22;27636;52.610;13.244;2023-06-26T10:44:09;37.00;45.30
41944;DHT22;27636;52.610;13.244;2023-06-26T10:49:13;36.40;48.00
41944;DHT22;27636;52.610;13.244;2023-06-26T10:54:20;35.30;48.80
41944;DHT22;27636;52.610;13.244;2023-06-26T10:59:25;35.80;49.60
41944;DHT22;27636;52.610;13.244;2023-06-26T11:04:39;36.70;47.90
41944;DHT22;27636;52.610;13.244;2023-06-26T11:09:58;36.40;48.70
41944;DHT22;27636;52.610;13.244;2023-06-26T11:15:03;35.90;45.80
41944;DHT22;27636;52.610;13.244;2023-06-26T11:20:08;35.80;47.90
41944;DHT22;27636;52.610;13.244;2023-06-26T11:25:19;36.30;47.60
41944;DHT22;27636;52.610;13.244;2023-06-26T11:30:25;37.30;47.70
41944;DHT22;27636;52.610;13.244;2023-06-26T11:35:29;36.10;48.50
41944;DHT22;27636;52.610;13.244;2023-06-26T11:40:38;36.70;46.20
41944;DHT22;27636;52.610;13.244;2023-06-26T11:45:44;37.50;45.00
41944;DHT22;27636;52.610;13.244;2023-06-26T11:50:52;36.60;49.20
41944;DHT22;27636;52.610;13.244;2023-06-26T11:55:57;37.10;47.30
41944;DHT22;27636;52.610;13.244;2023-06-26T12:01:01;37.40;45.40
41944;DHT22;27636;52.610;13.244;2023-06-26T12:06:05;36.90;45.70
41944;DHT22;27636;52.610;13.244;2023-06-26T12:11:13;35.90;45.90
41944;DHT22;27636;52.610;13.244;2023-06-26T12:16:20;36.00;47.40
41944;DHT22;27636;52.610;13.244;2023-06-26T12:21:48;36.00;48.30
41944;DHT22;27636;52.610;13.244;2023-06-26T12:26:57;35.90;49.10
41944;DHT22;27636;52.610;13.244;2023-06-26T12:32:03;37.20;48.70
41944;DHT22;27636;52.610;13.244;2023-06-26T12:37:11;38.20;47.60
41944;DHT22;27636;52.610;13.244;2023-06-26T12:42:17;37.70;43.80
41944;DHT22;27636;52.610;13.244;2023-06-26T12:47:25;37.50;46.10
41944;DHT22;27636;52.610;13.244;2023-06-26T12:52:30;37.20;45.40
41944;DHT22;27636;52.610;13.244;2023-06-26T12:57:35;35.90;45.90
41944;DHT22;27636;52.610;13.244;2023-06-26T13:02:41;34.80;51.50
41944;DHT22;27636;52.610;13.244;2023-06-26T13:07:45;34.00;55.20
41944;DHT22;27636;52.610;13.244;2023-06-26T13:12:52;33.00;53.30
41944;DHT22;27636;52.610;13.244;2023-06-26T13:17:56;32.00;55.90
41944;DHT22;27636;52.610;13.244;2023-06-26T13:23:02;31.60;57.20
41944;DHT22;27636;52.610;13.244;2023-06-26T13:28:07;31.20;58.30
41944;DHT22;27636;52.610;13.244;2023-06-26T13:33:12;30.70;58.60
41944;DHT22;27636;52.610;13.244;2023-06-26T13:38:15;30.60;61.40
41944;DHT22;27636;52.610;13.244;2023-06-26T13:43:21;30.40;62.10
41944;DHT22;27636;52.610;13.244;2023-06-26T13:48:29;29.90;63.60
41944;DHT22;27636;52.610;13.244;2023-06-26T13:53:32;29.80;64.10
41944;DHT22;27636;52.610;13.244;2023-06-26T13:58:45;29.60;63.30
41944;DHT22;27636;52.610;13.244;2023-06-26T14:03:49;29.10;69.90
41944;DHT22;27636;52.610;13.244;2023-06-26T14:08:54;28.90;69.70
41944;DHT22;27636;52.610;13.244;2023-06-26T14:13:59;26.50;88.00
41944;DHT22;27636;52.610;13.244;2023-06-26T14:19:03;23.70;99.90
41944;DHT22;27636;52.610;13.244;2023-06-26T14:24:08;22.60;99.90
41944;DHT22;27636;52.610;13.244;2023-06-26T14:29:13;22.10;99.90
41944;DHT22;27636;52.610;13.244;2023-06-26T14:34:20;22.00;99.90
41944;DHT22;27636;52.610;13.244;2023-06-26T14:39:23;21.80;99.90
41944;DHT22;27636;52.610;13.244;2023-06-26T14:44:29;21.80;99.90
41944;DHT22;27636;52.610;13.244;2023-06-26T14:49:33;21.80;99.90
41944;DHT22;27636;52.610;13.244;2023-06-26T14:54:37;21.90;99.90
41944;DHT22;27636;52.610;13.244;2023-06-26T14:59:42;21.90;99.90
41944;DHT22;27636;52.610;13.244;2023-06-26T15:04:45;19.70;99.90
41944;DHT22;27636;52.610;13.244;2023-06-26T15:09:50;19.40;99.90
41944;DHT22;27636;52.610;13.244;2023-06-26T15:14:56;19.30;99.90
41944;DHT22;27636;52.610;13.244;2023-06-26T15:19:59;19.30;99.90
41944;DHT22;27636;52.610;13.244;2023-06-26T15:25:05;19.40;99.90
41944;DHT22;27636;52.610;13.244;2023-06-26T15:30:11;19.70;99.90
41944;DHT22;27636;52.610;13.244;2023-06-26T15:35:15;20.10;99.90
41944;DHT22;27636;52.610;13.244;2023-06-26T15:40:18;20.90;99.90
41944;DHT22;27636;52.610;13.244;2023-06-26T15:45:23;21.20;99.90
41944;DHT22;27636;52.610;13.244;2023-06-26T15:50:30;21.20;99.90
41944;DHT22;27636;52.610;13.244;2023-06-26T15:55:34;21.50;99.90
41944;DHT22;27636;52.610;13.244;2023-06-26T16:00:39;21.60;99.90
41944;DHT22;27636;52.610;13.244;2023-06-26T16:05:42;21.90;99.90
41944;DHT22;27636;52.610;13.244;2023-06-26T16:10:46;22.20;99.90
41944;DHT22;27636;52.610;13.244;2023-06-26T16:15:51;22.90;99.90
41944;DHT22;27636;52.610;13.244;2023-06-26T16:20:55;22.90;99.90
41944;DHT22;27636;52.610;13.244;2023-06-26T16:25:58;22.70;99.90
41944;DHT22;27636;52.610;13.244;2023-06-26T16:31:03;22.40;99.90
41944;DHT22;27636;52.610;13.244;2023-06-26T16:36:07;22.70;99.90
41944;DHT22;27636;52.610;13.244;2023-06-26T16:41:10;22.50;99.90
41944;DHT22;27636;52.610;13.244;2023-06-26T16:46:15;22.40;99.90
41944;DHT22;27636;52.610;13.244;2023-06-26T16:51:19;22.20;99.90
41944;DHT22;27636;52.610;13.244;2023-06-26T16:56:23;22.20;99.90
41944;DHT22;27636;52.610;13.244;2023-06-26T17:01:29;22.30;99.90
41944;DHT22;27636;52.610;13.244;2023-06-26T17:06:32;22.70;99.90
41944;DHT22;27636;52.610;13.244;2023-06-26T17:11:35;23.30;99.90
41944;DHT22;27636;52.610;13.244;2023-06-26T17:16:40;23.70;99.90
41944;DHT22;27636;52.610;13.244;2023-06-26T17:21:44;23.80;99.90
41944;DHT22;27636;52.610;13.244;2023-06-26T17:26:51;23.30;99.90
41944;DHT22;27636;52.610;13.244;2023-06-26T17:31:56;22.80;99.90
41944;DHT22;27636;52.610;13.244;2023-06-26T17:36:59;22.20;99.90
41944;DHT22;27636;52.610;13.244;2023-06-26T17:42:07;22.00;99.90
41944;DHT22;27636;52.610;13.244;2023-06-26T17:47:13;21.80;99.90
41944;DHT22;27636;52.610;13.244;2023-06-26T17:52:17;21.60;99.90
41944;DHT22;27636;52.610;13.244;2023-06-26T17:57:22;21.40;99.90
41944;DHT22;27636;52.610;13.244;2023-06-26T18:02:27;21.30;99.90
41944;DHT22;27636;52.610;13.244;2023-06-26T18:07:31;21.10;99.90
41944;DHT22;27636;52.610;13.244;2023-06-26T18:12:35;21.10;99.90
41944;DHT22;27636;52.610;13.244;2023-06-26T18:17:39;21.00;99.90
41944;DHT22;27636;52.610;13.244;2023-06-26T18:22:44;21.10;99.90
41944;DHT22;27636;52.610;13.244;2023-06-26T18:27:48;21.10;99.90
41944;DHT22;27636;52.610;13.244;2023-06-26T18:32:53;20.90;99.90
41944;DHT22;27636;52.610;13.244;2023-06-26T18:37:57;20.90;99.90
41944;DHT22;27636;52.610;13.244;2023-06-26T18:43:01;20.80;99.90
41944;DHT22;27636;52.610;13.244;2023-06-26T18:48:06;20.50;99.90
41944;DHT22;27636;52.610;13.244;2023-06-26T18:53:10;20.20;99.90
41944;DHT22;27636;52.610;13.244;2023-06-26T18:58:14;20.10;99.90
41944;DHT22;27636;52.610;13.244;2023-06-26T19:03:19;20.00;99.90
41944;DHT22;27636;52.610;13.244;2023-06-26T19:08:22;19.70;99.90
41944;DHT22;27636;52.610;13.244;2023-06-26T19:13:26;19.60;99.90
41944;DHT22;27636;52.610;13.244;2023-06-26T19:18:32;19.30;99.90
41944;DHT22;27636;52.610;13.244;2023-06-26T19:23:36;19.10;99.90
41944;DHT22;27636;52.610;13.244;2023-06-26T19:28:39;18.90;99.90
41944;DHT22;27636;52.610;13.244;2023-06-26T19:33:44;18.70;99.90
41944;DHT22;27636;52.610;13.244;2023-06-26T19:38:48;18.50;99.90
41944;DHT22;27636;52.610;13.244;2023-06-26T19:43:52;18.40;99.90
41944;DHT22;27636;52.610;13.244;2023-06-26T19:48:56;18.20;99.90
41944;DHT22;27636;52.610;13.244;2023-06-26T19:54:00;18.20;99.90
41944;DHT22;27636;52.610;13.244;2023-06-26T19:59:04;18.10;99.90
41944;DHT22;27636;52.610;13.244;2023-06-26T20:04:09;18.10;99.90
41944;DHT22;27636;52.610;13.244;2023-06-26T20:09:13;18.10;99.90
41944;DHT22;27636;52.610;13.244;2023-06-26T20:14:17;18.10;99.90
41944;DHT22;27636;52.610;13.244;2023-06-26T20:19:22;18.10;99.90
41944;DHT22;27636;52.610;13.244;2023-06-26T20:24:26;18.20;99.90
41944;DHT22;27636;52.610;13.244;2023-06-26T20:29:32;18.00;99.90
41944;DHT22;27636;52.610;13.244;2023-06-26T20:34:37;17.90;99.90
41944;DHT22;27636;52.610;13.244;2023-06-26T20:39:41;17.90;99.90
41944;DHT22;27636;52.610;13.244;2023-06-26T20:44:46;17.70;99.90
41944;DHT22;27636;52.610;13.244;2023-06-26T20:49:53;18.00;99.90
41944;DHT22;27636;52.610;13.244;2023-06-26T20:54:57;18.20;99.90
41944;DHT22;27636;52.610;13.244;2023-06-26T21:00:00;18.30;99.90
41944;DHT22;27636;52.610;13.244;2023-06-26T21:05:06;18.20;99.90
41944;DHT22;27636;52.610;13.244;2023-06-26T21:10:10;18.20;99.90
41944;DHT22;27636;52.610;13.244;2023-06-26T21:15:14;18.20;99.90
41944;DHT22;27636;52.610;13.244;2023-06-26T21:20:19;18.10;99.90
41944;DHT22;27636;52.610;13.244;2023-06-26T21:25:24;18.10;99.90
41944;DHT22;27636;52.610;13.244;2023-06-26T21:30:27;18.00;99.90
41944;DHT22;27636;52.610;13.244;2023-06-26T21:35:32;18.10;99.90
41944;DHT22;27636;52.610;13.244;2023-06-26T21:40:46;18.10;99.90
41944;DHT22;27636;52.610;13.244;2023-06-26T21:45:50;18.10;99.90
41944;DHT22;27636;52.610;13.244;2023-06-26T21:50:55;18.20;99.90
41944;DHT22;27636;52.610;13.244;2023-06-26T21:55:58;18.20;99.90
41944;DHT22;27636;52.610;13.244;2023-06-26T22:01:02;18.30;99.90
41944;DHT22;27636;52.610;13.244;2023-06-26T22:06:07;18.30;99.90
41944;DHT22;27636;52.610;13.244;2023-06-26T22:11:11;18.20;99.90
41944;DHT22;27636;52.610;13.244;2023-06-26T22:16:14;18.20;99.90
41944;DHT22;27636;52.610;13.244;2023-06-26T22:21:17;18.00;99.90
41944;DHT22;27636;52.610;13.244;2023-06-26T22:26:23;17.90;99.90
41944;DHT22;27636;52.610;13.244;2023-06-26T22:31:26;17.80;99.90
41944;DHT22;27636;52.610;13.244;2023-06-26T22:36:31;17.80;99.90
41944;DHT22;27636;52.610;13.244;2023-06-26T22:41:35;17.70;99.90
41944;DHT22;27636;52.610;13.244;2023-06-26T22:46:38;17.60;99.90
41944;DHT22;27636;52.610;13.244;2023-06-26T22:51:43;17.40;99.90
41944;DHT22;27636;52.610;13.244;2023-06-26T22:56:46;17.20;99.90
41944;DHT22;27636;52.610;13.244;2023-06-26T23:01:58;16.90;99.90
41944;DHT22;27636;52.610;13.244;2023-06-26T23:07:04;17.00;99.90
41944;DHT22;27636;52.610;13.244;2023-06-26T23:12:08;17.10;99.90
41944;DHT22;27636;52.610;13.244;2023-06-26T23:17:12;17.10;99.90
41944;DHT22;27636;52.610;13.244;2023-06-26T23:22:17;17.00;99.90
41944;DHT22;27636;52.610;13.244;2023-06-26T23:27:23;16.90;99.90
41944;DHT22;27636;52.610;13.244;2023-06-26T23:32:26;16.70;99.90
41944;DHT22;27636;52.610;13.244;2023-06-26T23:37:33;16.80;99.90
41944;DHT22;27636;52.610;13.244;2023-06-26T23:42:40;16.70;99.90
41944;DHT22;27636;52.610;13.244;2023-06-26T23:47:43;16.50;99.90
41944;DHT22;27636;52.610;13.244;2023-06-26T23:52:52;16.60;99.90
41944;DHT22;27636;52.610;13.244;2023-06-26T23:57:56;16.40;99.90
